sensor_id;sensor_type;location;lat;lon;timestamp;temperature;humidity
47600;DHT22;33323;52.124;6.018;2023-02-28T00:01:28;-0.60;99.90
47600;DHT22;33323;52.124;6.018;2023-02-28T00:03:56;-0.50;99.90
47600;DHT22;33323;52.124;6.018;2023-02-28T00:06:23;-0.50;99.90
47600;DHT22;33323;52.124;6.018;2023-02-28T00:08:50;-0.50;99.90
47600;DHT22;33323;52.124;6.018;2023-02-28T00:11:20;-0.40;99.90
47600;DHT22;33323;52.124;6.018;2023-02-28T00:13:48;-0.40;99.90
47600;DHT22;33323;52.124;6.018;2023-02-28T00:16:18;-0.30;99.90
47600;DHT22;33323;52.124;6.018;2023-02-28T00:18:47;-0.30;99.90
47600;DHT22;33323;52.124;6.018;2023-02-28T00:21:15;-0.40;99.90
47600;DHT22;33323;52.124;6.018;2023-02-28T00:23:42;-0.40;99.90
47600;DHT22;33323;52.124;6.018;2023-02-28T00:26:10;-0.30;99.90
47600;DHT22;33323;52.124;6.018;2023-02-28T00:28:38;-0.20;99.90
47600;DHT22;33323;52.124;6.018;2023-02-28T00:31:05;-0.10;99.90
47600;DHT22;33323;52.124;6.018;2023-02-28T00:33:34;-0.10;99.90
47600;DHT22;33323;52.124;6.018;2023-02-28T00:36:07;-0.10;99.90
47600;DHT22;33323;52.124;6.018;2023-02-28T00:38:37;-0.10;99.90
47600;DHT22;33323;52.124;6.018;2023-02-28T00:41:04;-0.10;99.90
47600;DHT22;33323;52.124;6.018;2023-02-28T00:43:33;-0.10;99.90
47600;DHT22;33323;52.124;6.018;2023-02-28T00:46:02;-0.10;99.90
47600;DHT22;33323;52.124;6.018;2023-02-28T00:48:29;0.00;99.90
47600;DHT22;33323;52.124;6.018;2023-02-28T00:50:57;0.00;99.90
47600;DHT22;33323;52.124;6.018;2023-02-28T00:53:24;0.00;99.90
47600;DHT22;33323;52.124;6.018;2023-02-28T00:55:51;0.10;99.90
47600;DHT22;33323;52.124;6.018;2023-02-28T00:58:18;0.10;99.90
47600;DHT22;33323;52.124;6.018;2023-02-28T01:00:46;0.20;99.90
47600;DHT22;33323;52.124;6.018;2023-02-28T01:03:16;0.20;99.90
47600;DHT22;33323;52.124;6.018;2023-02-28T01:05:44;0.30;99.90
47600;DHT22;33323;52.124;6.018;2023-02-28T01:08:12;0.30;99.90
47600;DHT22;33323;52.124;6.018;2023-02-28T01:10:40;0.30;99.90
47600;DHT22;33323;52.124;6.018;2023-02-28T01:13:08;0.30;99.90
47600;DHT22;33323;52.124;6.018;2023-02-28T01:15:36;0.40;99.90
47600;DHT22;33323;52.124;6.018;2023-02-28T01:18:04;0.40;99.90
47600;DHT22;33323;52.124;6.018;2023-02-28T01:20:31;0.40;99.90
47600;DHT22;33323;52.124;6.018;2023-02-28T01:22:58;0.40;99.90
47600;DHT22;33323;52.124;6.018;2023-02-28T01:25:26;0.40;99.90
47600;DHT22;33323;52.124;6.018;2023-02-28T01:27:53;0.40;99.90
47600;DHT22;33323;52.124;6.018;2023-02-28T01:30:20;0.40;99.90
47600;DHT22;33323;52.124;6.018;2023-02-28T01:32:47;0.50;99.90
47600;DHT22;33323;52.124;6.018;2023-02-28T01:35:14;0.50;99.90
47600;DHT22;33323;52.124;6.018;2023-02-28T01:37:41;0.50;99.90
47600;DHT22;33323;52.124;6.018;2023-02-28T01:40:09;0.40;99.90
47600;DHT22;33323;52.124;6.018;2023-02-28T01:42:36;0.40;99.90
47600;DHT22;33323;52.124;6.018;2023-02-28T01:45:26;0.50;99.90
47600;DHT22;33323;52.124;6.018;2023-02-28T01:48:02;0.50;99.90
47600;DHT22;33323;52.124;6.018;2023-02-28T01:50:34;0.50;99.90
47600;DHT22;33323;52.124;6.018;2023-02-28T01:53:07;0.40;99.90
47600;DHT22;33323;52.124;6.018;2023-02-28T01:55:37;0.40;99.90
47600;DHT22;33323;52.124;6.018;2023-02-28T01:58:06;0.40;99.90
47600;DHT22;33323;52.124;6.018;2023-02-28T02:00:35;0.30;99.90
47600;DHT22;33323;52.124;6.018;2023-02-28T02:03:08;0.30;99.90
47600;DHT22;33323;52.124;6.018;2023-02-28T02:05:39;0.40;99.90
47600;DHT22;33323;52.124;6.018;2023-02-28T02:08:10;0.40;99.90
47600;DHT22;33323;52.124;6.018;2023-02-28T02:19:37;0.60;99.90
47600;DHT22;33323;52.124;6.018;2023-02-28T02:22:30;0.50;99.90
47600;DHT22;33323;52.124;6.018;2023-02-28T02:25:13;0.60;99.90
47600;DHT22;33323;52.124;6.018;2023-02-28T02:34:00;0.70;99.90
47600;DHT22;33323;52.124;6.018;2023-02-28T02:36:37;0.70;99.90
47600;DHT22;33323;52.124;6.018;2023-02-28T02:42:05;0.70;99.90
47600;DHT22;33323;52.124;6.018;2023-02-28T02:45:16;0.70;99.90
47600;DHT22;33323;52.124;6.018;2023-02-28T02:47:46;0.70;99.90
47600;DHT22;33323;52.124;6.018;2023-02-28T02:50:19;0.70;99.90
47600;DHT22;33323;52.124;6.018;2023-02-28T02:52:54;0.70;99.90
47600;DHT22;33323;52.124;6.018;2023-02-28T02:55:24;0.70;99.90
47600;DHT22;33323;52.124;6.018;2023-02-28T02:57:59;0.70;99.90
47600;DHT22;33323;52.124;6.018;2023-02-28T03:00:42;0.70;99.90
47600;DHT22;33323;52.124;6.018;2023-02-28T03:03:13;0.70;99.90
47600;DHT22;33323;52.124;6.018;2023-02-28T03:05:47;0.70;99.90
47600;DHT22;33323;52.124;6.018;2023-02-28T03:08:16;0.60;99.90
47600;DHT22;33323;52.124;6.018;2023-02-28T03:10:47;0.60;99.90
47600;DHT22;33323;52.124;6.018;2023-02-28T03:33:24;0.80;99.90
47600;DHT22;33323;52.124;6.018;2023-02-28T03:36:04;0.70;99.90
47600;DHT22;33323;52.124;6.018;2023-02-28T03:39:14;0.70;99.90
47600;DHT22;33323;52.124;6.018;2023-02-28T03:44:38;0.70;99.90
47600;DHT22;33323;52.124;6.018;2023-02-28T03:47:12;0.70;99.90
47600;DHT22;33323;52.124;6.018;2023-02-28T03:52:31;0.70;99.90
47600;DHT22;33323;52.124;6.018;2023-02-28T03:55:03;0.80;99.90
47600;DHT22;33323;52.124;6.018;2023-02-28T04:00:18;0.70;99.90
47600;DHT22;33323;52.124;6.018;2023-02-28T04:02:48;0.70;99.90
47600;DHT22;33323;52.124;6.018;2023-02-28T04:05:22;0.60;99.90
47600;DHT22;33323;52.124;6.018;2023-02-28T04:07:49;0.70;99.90
47600;DHT22;33323;52.124;6.018;2023-02-28T04:10:16;0.70;99.90
47600;DHT22;33323;52.124;6.018;2023-02-28T04:12:44;0.80;99.90
47600;DHT22;33323;52.124;6.018;2023-02-28T04:15:11;0.80;99.90
47600;DHT22;33323;52.124;6.018;2023-02-28T04:17:38;0.80;99.90
47600;DHT22;33323;52.124;6.018;2023-02-28T04:20:05;0.70;99.90
47600;DHT22;33323;52.124;6.018;2023-02-28T04:22:36;0.70;99.90
47600;DHT22;33323;52.124;6.018;2023-02-28T04:25:04;0.70;99.90
47600;DHT22;33323;52.124;6.018;2023-02-28T04:27:32;0.60;99.90
47600;DHT22;33323;52.124;6.018;2023-02-28T04:29:59;0.60;99.90
47600;DHT22;33323;52.124;6.018;2023-02-28T04:32:26;0.70;99.90
47600;DHT22;33323;52.124;6.018;2023-02-28T04:34:53;0.80;99.90
47600;DHT22;33323;52.124;6.018;2023-02-28T04:37:20;0.80;99.90
47600;DHT22;33323;52.124;6.018;2023-02-28T04:39:47;0.70;99.90
47600;DHT22;33323;52.124;6.018;2023-02-28T04:42:15;0.80;99.90
47600;DHT22;33323;52.124;6.018;2023-02-28T04:44:41;0.80;99.90
47600;DHT22;33323;52.124;6.018;2023-02-28T04:47:08;0.70;99.90
47600;DHT22;33323;52.124;6.018;2023-02-28T04:49:36;0.70;99.90
47600;DHT22;33323;52.124;6.018;2023-02-28T04:52:03;0.60;99.90
47600;DHT22;33323;52.124;6.018;2023-02-28T04:54:30;0.60;99.90
47600;DHT22;33323;52.124;6.018;2023-02-28T04:56:57;0.60;99.90
47600;DHT22;33323;52.124;6.018;2023-02-28T04:59:24;0.70;99.90
47600;DHT22;33323;52.124;6.018;2023-02-28T05:01:51;0.60;99.90
47600;DHT22;33323;52.124;6.018;2023-02-28T05:04:18;0.70;99.90
47600;DHT22;33323;52.124;6.018;2023-02-28T05:06:45;0.70;99.90
47600;DHT22;33323;52.124;6.018;2023-02-28T05:09:12;0.70;99.90
47600;DHT22;33323;52.124;6.018;2023-02-28T05:11:39;0.70;99.90
47600;DHT22;33323;52.124;6.018;2023-02-28T05:14:11;0.70;99.90
47600;DHT22;33323;52.124;6.018;2023-02-28T05:16:39;0.70;99.90
47600;DHT22;33323;52.124;6.018;2023-02-28T05:19:06;0.70;99.90
47600;DHT22;33323;52.124;6.018;2023-02-28T05:21:35;0.70;99.90
47600;DHT22;33323;52.124;6.018;2023-02-28T05:24:06;0.60;99.90
47600;DHT22;33323;52.124;6.018;2023-02-28T05:26:37;0.60;99.90
47600;DHT22;33323;52.124;6.018;2023-02-28T05:29:06;0.60;99.90
47600;DHT22;33323;52.124;6.018;2023-02-28T05:31:33;0.60;99.90
47600;DHT22;33323;52.124;6.018;2023-02-28T05:34:00;0.60;99.90
47600;DHT22;33323;52.124;6.018;2023-02-28T05:36:27;0.50;99.90
47600;DHT22;33323;52.124;6.018;2023-02-28T05:38:54;0.60;99.90
47600;DHT22;33323;52.124;6.018;2023-02-28T05:41:21;0.60;99.90
47600;DHT22;33323;52.124;6.018;2023-02-28T05:43:49;0.50;99.90
47600;DHT22;33323;52.124;6.018;2023-02-28T05:46:16;0.50;99.90
47600;DHT22;33323;52.124;6.018;2023-02-28T05:48:46;0.60;99.90
47600;DHT22;33323;52.124;6.018;2023-02-28T05:51:14;0.60;99.90
47600;DHT22;33323;52.124;6.018;2023-02-28T05:53:42;0.70;99.90
47600;DHT22;33323;52.124;6.018;2023-02-28T05:56:09;0.70;99.90
47600;DHT22;33323;52.124;6.018;2023-02-28T05:58:36;0.70;99.90
47600;DHT22;33323;52.124;6.018;2023-02-28T06:04:01;0.70;99.90
47600;DHT22;33323;52.124;6.018;2023-02-28T06:06:30;0.70;99.90
47600;DHT22;33323;52.124;6.018;2023-02-28T06:08:57;0.70;99.90
47600;DHT22;33323;52.124;6.018;2023-02-28T06:11:24;0.60;99.90
47600;DHT22;33323;52.124;6.018;2023-02-28T06:13:56;0.70;99.90
47600;DHT22;33323;52.124;6.018;2023-02-28T06:16:24;0.60;99.90
47600;DHT22;33323;52.124;6.018;2023-02-28T06:18:51;0.70;99.90
47600;DHT22;33323;52.124;6.018;2023-02-28T06:21:19;0.70;99.90
47600;DHT22;33323;52.124;6.018;2023-02-28T06:23:46;0.70;99.90
47600;DHT22;33323;52.124;6.018;2023-02-28T06:26:13;0.70;99.90
47600;DHT22;33323;52.124;6.018;2023-02-28T06:28:40;0.70;99.90
47600;DHT22;33323;52.124;6.018;2023-02-28T06:31:10;0.80;99.90
47600;DHT22;33323;52.124;6.018;2023-02-28T06:33:40;0.80;99.90
47600;DHT22;33323;52.124;6.018;2023-02-28T06:36:08;0.70;99.90
47600;DHT22;33323;52.124;6.018;2023-02-28T06:38:36;0.80;99.90
47600;DHT22;33323;52.124;6.018;2023-02-28T06:41:04;0.80;99.90
47600;DHT22;33323;52.124;6.018;2023-02-28T06:43:35;0.80;99.90
47600;DHT22;33323;52.124;6.018;2023-02-28T06:46:07;0.80;99.90
47600;DHT22;33323;52.124;6.018;2023-02-28T06:48:35;0.80;99.90
47600;DHT22;33323;52.124;6.018;2023-02-28T06:51:21;0.80;99.90
47600;DHT22;33323;52.124;6.018;2023-02-28T06:53:49;0.90;99.90
47600;DHT22;33323;52.124;6.018;2023-02-28T06:56:19;0.90;99.90
47600;DHT22;33323;52.124;6.018;2023-02-28T06:58:48;0.90;99.90
47600;DHT22;33323;52.124;6.018;2023-02-28T07:01:16;1.00;99.90
47600;DHT22;33323;52.124;6.018;2023-02-28T07:03:45;1.00;99.90
47600;DHT22;33323;52.124;6.018;2023-02-28T07:06:12;1.00;99.90
47600;DHT22;33323;52.124;6.018;2023-02-28T07:08:39;1.00;99.90
47600;DHT22;33323;52.124;6.018;2023-02-28T07:11:07;1.10;99.90
47600;DHT22;33323;52.124;6.018;2023-02-28T07:13:35;1.20;99.90
47600;DHT22;33323;52.124;6.018;2023-02-28T07:16:05;1.20;99.90
47600;DHT22;33323;52.124;6.018;2023-02-28T07:18:34;1.20;99.90
47600;DHT22;33323;52.124;6.018;2023-02-28T07:21:03;1.30;99.90
47600;DHT22;33323;52.124;6.018;2023-02-28T07:23:34;1.30;99.90
47600;DHT22;33323;52.124;6.018;2023-02-28T07:26:01;1.30;99.90
47600;DHT22;33323;52.124;6.018;2023-02-28T07:28:28;1.40;99.90
47600;DHT22;33323;52.124;6.018;2023-02-28T07:30:56;1.40;99.90
47600;DHT22;33323;52.124;6.018;2023-02-28T07:33:23;1.60;99.90
47600;DHT22;33323;52.124;6.018;2023-02-28T07:35:50;1.70;99.90
47600;DHT22;33323;52.124;6.018;2023-02-28T07:38:18;1.70;99.90
47600;DHT22;33323;52.124;6.018;2023-02-28T07:40:45;1.80;99.90
47600;DHT22;33323;52.124;6.018;2023-02-28T07:43:12;1.90;99.90
47600;DHT22;33323;52.124;6.018;2023-02-28T07:45:39;1.90;99.90
47600;DHT22;33323;52.124;6.018;2023-02-28T07:48:06;2.00;99.90
47600;DHT22;33323;52.124;6.018;2023-02-28T07:50:33;2.10;99.90
47600;DHT22;33323;52.124;6.018;2023-02-28T07:53:01;2.10;99.90
47600;DHT22;33323;52.124;6.018;2023-02-28T07:55:28;2.20;99.90
47600;DHT22;33323;52.124;6.018;2023-02-28T07:57:57;2.10;99.90
47600;DHT22;33323;52.124;6.018;2023-02-28T08:00:24;2.00;99.90
47600;DHT22;33323;52.124;6.018;2023-02-28T08:02:51;2.00;99.90
47600;DHT22;33323;52.124;6.018;2023-02-28T08:05:18;1.90;99.90
47600;DHT22;33323;52.124;6.018;2023-02-28T08:07:49;1.90;99.90
47600;DHT22;33323;52.124;6.018;2023-02-28T08:10:16;2.00;99.90
47600;DHT22;33323;52.124;6.018;2023-02-28T08:12:43;2.00;99.90
47600;DHT22;33323;52.124;6.018;2023-02-28T08:15:10;2.10;99.90
47600;DHT22;33323;52.124;6.018;2023-02-28T08:17:37;2.10;99.90
47600;DHT22;33323;52.124;6.018;2023-02-28T08:20:05;2.10;99.90
47600;DHT22;33323;52.124;6.018;2023-02-28T08:22:33;2.10;99.90
47600;DHT22;33323;52.124;6.018;2023-02-28T08:25:00;2.10;99.90
47600;DHT22;33323;52.124;6.018;2023-02-28T08:27:27;2.20;99.90
47600;DHT22;33323;52.124;6.018;2023-02-28T08:29:54;2.20;99.90
47600;DHT22;33323;52.124;6.018;2023-02-28T08:32:21;2.20;99.90
47600;DHT22;33323;52.124;6.018;2023-02-28T08:34:56;2.20;99.90
47600;DHT22;33323;52.124;6.018;2023-02-28T08:37:24;2.30;99.90
47600;DHT22;33323;52.124;6.018;2023-02-28T08:39:51;2.40;99.90
47600;DHT22;33323;52.124;6.018;2023-02-28T08:42:22;2.30;99.90
47600;DHT22;33323;52.124;6.018;2023-02-28T08:44:50;2.40;99.90
47600;DHT22;33323;52.124;6.018;2023-02-28T08:47:17;2.50;99.90
47600;DHT22;33323;52.124;6.018;2023-02-28T08:49:44;2.50;99.90
47600;DHT22;33323;52.124;6.018;2023-02-28T08:52:11;2.60;99.90
47600;DHT22;33323;52.124;6.018;2023-02-28T08:54:38;2.50;99.90
47600;DHT22;33323;52.124;6.018;2023-02-28T08:57:05;2.60;99.90
47600;DHT22;33323;52.124;6.018;2023-02-28T08:59:32;2.50;99.90
47600;DHT22;33323;52.124;6.018;2023-02-28T09:02:00;2.60;99.90
47600;DHT22;33323;52.124;6.018;2023-02-28T09:04:27;2.70;99.90
47600;DHT22;33323;52.124;6.018;2023-02-28T09:06:57;2.80;99.90
47600;DHT22;33323;52.124;6.018;2023-02-28T09:09:24;2.90;99.90
47600;DHT22;33323;52.124;6.018;2023-02-28T09:11:51;3.00;99.90
47600;DHT22;33323;52.124;6.018;2023-02-28T09:14:18;3.10;99.90
47600;DHT22;33323;52.124;6.018;2023-02-28T09:16:47;3.20;99.90
47600;DHT22;33323;52.124;6.018;2023-02-28T09:19:15;3.30;99.90
47600;DHT22;33323;52.124;6.018;2023-02-28T09:21:42;3.40;99.90
47600;DHT22;33323;52.124;6.018;2023-02-28T09:24:09;3.60;99.90
47600;DHT22;33323;52.124;6.018;2023-02-28T09:26:38;3.60;99.90
47600;DHT22;33323;52.124;6.018;2023-02-28T09:29:17;3.90;99.90
47600;DHT22;33323;52.124;6.018;2023-02-28T09:31:44;4.00;99.90
47600;DHT22;33323;52.124;6.018;2023-02-28T09:34:12;4.20;99.90
47600;DHT22;33323;52.124;6.018;2023-02-28T09:36:39;4.50;99.90
47600;DHT22;33323;52.124;6.018;2023-02-28T09:39:12;4.70;99.90
47600;DHT22;33323;52.124;6.018;2023-02-28T09:41:44;4.80;99.90
47600;DHT22;33323;52.124;6.018;2023-02-28T09:44:39;4.90;99.90
47600;DHT22;33323;52.124;6.018;2023-02-28T09:49:59;5.10;99.90
47600;DHT22;33323;52.124;6.018;2023-02-28T09:52:33;5.00;99.90
47600;DHT22;33323;52.124;6.018;2023-02-28T09:57:47;5.50;99.90
47600;DHT22;33323;52.124;6.018;2023-02-28T10:00:24;5.70;99.90
47600;DHT22;33323;52.124;6.018;2023-02-28T10:03:29;5.70;99.90
47600;DHT22;33323;52.124;6.018;2023-02-28T10:06:14;5.60;99.90
47600;DHT22;33323;52.124;6.018;2023-02-28T10:09:03;5.40;99.90
47600;DHT22;33323;52.124;6.018;2023-02-28T10:11:33;5.20;99.90
47600;DHT22;33323;52.124;6.018;2023-02-28T10:14:12;5.50;99.90
47600;DHT22;33323;52.124;6.018;2023-02-28T10:16:46;5.80;99.90
47600;DHT22;33323;52.124;6.018;2023-02-28T10:25:27;5.60;99.90
47600;DHT22;33323;52.124;6.018;2023-02-28T10:30:36;5.60;99.90
47600;DHT22;33323;52.124;6.018;2023-02-28T10:33:05;5.80;99.90
47600;DHT22;33323;52.124;6.018;2023-02-28T10:35:32;5.90;99.90
47600;DHT22;33323;52.124;6.018;2023-02-28T10:38:02;5.80;99.90
47600;DHT22;33323;52.124;6.018;2023-02-28T10:40:42;5.70;99.90
47600;DHT22;33323;52.124;6.018;2023-02-28T10:48:34;5.70;99.90
47600;DHT22;33323;52.124;6.018;2023-02-28T10:51:38;5.60;99.90
47600;DHT22;33323;52.124;6.018;2023-02-28T10:54:15;5.70;99.90
47600;DHT22;33323;52.124;6.018;2023-02-28T10:56:43;5.80;99.90
47600;DHT22;33323;52.124;6.018;2023-02-28T10:59:30;5.90;99.90
47600;DHT22;33323;52.124;6.018;2023-02-28T11:01:58;6.20;99.90
47600;DHT22;33323;52.124;6.018;2023-02-28T11:09:48;6.20;99.90
47600;DHT22;33323;52.124;6.018;2023-02-28T11:20:39;6.20;99.90
47600;DHT22;33323;52.124;6.018;2023-02-28T11:23:12;6.40;99.90
47600;DHT22;33323;52.124;6.018;2023-02-28T11:25:50;6.70;99.90
47600;DHT22;33323;52.124;6.018;2023-02-28T11:28:37;6.70;99.90
47600;DHT22;33323;52.124;6.018;2023-02-28T11:33:46;6.30;99.90
47600;DHT22;33323;52.124;6.018;2023-02-28T11:36:29;6.30;99.90
47600;DHT22;33323;52.124;6.018;2023-02-28T11:39:08;6.60;99.90
47600;DHT22;33323;52.124;6.018;2023-02-28T11:44:57;6.60;99.90
47600;DHT22;33323;52.124;6.018;2023-02-28T11:47:45;6.90;99.90
47600;DHT22;33323;52.124;6.018;2023-02-28T11:56:28;6.90;99.90
47600;DHT22;33323;52.124;6.018;2023-02-28T12:07:47;6.40;99.90
47600;DHT22;33323;52.124;6.018;2023-02-28T12:10:27;6.40;99.90
47600;DHT22;33323;52.124;6.018;2023-02-28T12:15:48;6.60;99.90
47600;DHT22;33323;52.124;6.018;2023-02-28T12:27:11;6.50;99.90
47600;DHT22;33323;52.124;6.018;2023-02-28T12:32:25;6.40;99.90
47600;DHT22;33323;52.124;6.018;2023-02-28T12:38:01;6.40;99.90
47600;DHT22;33323;52.124;6.018;2023-02-28T12:40:45;6.40;99.90
47600;DHT22;33323;52.124;6.018;2023-02-28T12:43:22;6.30;99.90
47600;DHT22;33323;52.124;6.018;2023-02-28T12:46:04;6.40;99.90
47600;DHT22;33323;52.124;6.018;2023-02-28T12:48:42;6.60;99.90
47600;DHT22;33323;52.124;6.018;2023-02-28T12:51:12;6.60;99.90
47600;DHT22;33323;52.124;6.018;2023-02-28T12:54:07;6.60;99.90
47600;DHT22;33323;52.124;6.018;2023-02-28T12:56:52;6.60;99.90
47600;DHT22;33323;52.124;6.018;2023-02-28T12:59:27;6.50;99.90
47600;DHT22;33323;52.124;6.018;2023-02-28T13:05:49;6.60;99.90
47600;DHT22;33323;52.124;6.018;2023-02-28T13:14:02;6.60;99.90
47600;DHT22;33323;52.124;6.018;2023-02-28T13:16:56;6.50;99.90
47600;DHT22;33323;52.124;6.018;2023-02-28T13:19:29;6.60;99.90
47600;DHT22;33323;52.124;6.018;2023-02-28T13:21:58;6.60;99.90
47600;DHT22;33323;52.124;6.018;2023-02-28T13:24:36;6.70;99.90
47600;DHT22;33323;52.124;6.018;2023-02-28T13:29:37;6.80;99.90
47600;DHT22;33323;52.124;6.018;2023-02-28T13:39:58;6.50;99.90
47600;DHT22;33323;52.124;6.018;2023-02-28T13:42:36;6.60;99.90
47600;DHT22;33323;52.124;6.018;2023-02-28T13:45:27;6.50;99.90
47600;DHT22;33323;52.124;6.018;2023-02-28T13:48:02;6.60;99.90
47600;DHT22;33323;52.124;6.018;2023-02-28T13:50:34;6.80;99.90
47600;DHT22;33323;52.124;6.018;2023-02-28T13:59:26;6.70;99.90
47600;DHT22;33323;52.124;6.018;2023-02-28T14:02:28;6.70;99.90
47600;DHT22;33323;52.124;6.018;2023-02-28T14:07:54;6.70;99.90
47600;DHT22;33323;52.124;6.018;2023-02-28T14:10:43;6.90;99.90
47600;DHT22;33323;52.124;6.018;2023-02-28T14:16:22;6.60;99.90
47600;DHT22;33323;52.124;6.018;2023-02-28T14:19:00;6.70;99.90
47600;DHT22;33323;52.124;6.018;2023-02-28T14:21:34;6.80;99.90
47600;DHT22;33323;52.124;6.018;2023-02-28T14:27:43;6.70;99.90
47600;DHT22;33323;52.124;6.018;2023-02-28T14:36:45;6.70;99.90
47600;DHT22;33323;52.124;6.018;2023-02-28T14:39:16;6.70;99.90
47600;DHT22;33323;52.124;6.018;2023-02-28T14:41:45;6.70;99.90
47600;DHT22;33323;52.124;6.018;2023-02-28T14:44:26;6.60;99.90
47600;DHT22;33323;52.124;6.018;2023-02-28T14:46:56;6.70;99.90
47600;DHT22;33323;52.124;6.018;2023-02-28T14:49:28;6.80;99.90
47600;DHT22;33323;52.124;6.018;2023-02-28T14:52:24;6.80;99.90
47600;DHT22;33323;52.124;6.018;2023-02-28T14:54:56;6.70;99.90
47600;DHT22;33323;52.124;6.018;2023-02-28T14:57:31;6.60;99.90
47600;DHT22;33323;52.124;6.018;2023-02-28T15:00:24;6.60;99.90
47600;DHT22;33323;52.124;6.018;2023-02-28T15:02:55;6.60;99.90
47600;DHT22;33323;52.124;6.018;2023-02-28T15:05:24;6.50;99.90
47600;DHT22;33323;52.124;6.018;2023-02-28T15:10:31;6.50;99.90
47600;DHT22;33323;52.124;6.018;2023-02-28T15:13:00;6.50;99.90
47600;DHT22;33323;52.124;6.018;2023-02-28T15:15:42;6.40;99.90
47600;DHT22;33323;52.124;6.018;2023-02-28T15:21:16;6.40;99.90
47600;DHT22;33323;52.124;6.018;2023-02-28T15:23:57;6.40;99.90
47600;DHT22;33323;52.124;6.018;2023-02-28T15:26:31;6.40;99.90
47600;DHT22;33323;52.124;6.018;2023-02-28T15:29:05;6.40;99.90
47600;DHT22;33323;52.124;6.018;2023-02-28T15:31:50;6.40;99.90
47600;DHT22;33323;52.124;6.018;2023-02-28T15:34:34;6.30;99.90
47600;DHT22;33323;52.124;6.018;2023-02-28T15:37:47;6.30;99.90
47600;DHT22;33323;52.124;6.018;2023-02-28T15:40:26;6.30;99.90
47600;DHT22;33323;52.124;6.018;2023-02-28T15:48:17;6.10;99.90
47600;DHT22;33323;52.124;6.018;2023-02-28T15:50:51;6.10;99.90
47600;DHT22;33323;52.124;6.018;2023-02-28T15:53:26;6.00;99.90
47600;DHT22;33323;52.124;6.018;2023-02-28T15:56:03;6.00;99.90
47600;DHT22;33323;52.124;6.018;2023-02-28T15:58:33;6.00;99.90
47600;DHT22;33323;52.124;6.018;2023-02-28T16:01:25;6.00;99.90
47600;DHT22;33323;52.124;6.018;2023-02-28T16:04:03;6.00;99.90
47600;DHT22;33323;52.124;6.018;2023-02-28T16:06:42;6.00;99.90
47600;DHT22;33323;52.124;6.018;2023-02-28T16:09:15;5.90;99.90
47600;DHT22;33323;52.124;6.018;2023-02-28T16:11:46;5.90;99.90
47600;DHT22;33323;52.124;6.018;2023-02-28T16:14:18;5.90;99.90
47600;DHT22;33323;52.124;6.018;2023-02-28T16:16:50;5.90;99.90
47600;DHT22;33323;52.124;6.018;2023-02-28T16:19:22;5.80;99.90
47600;DHT22;33323;52.124;6.018;2023-02-28T16:21:50;5.80;99.90
47600;DHT22;33323;52.124;6.018;2023-02-28T16:24:18;5.70;99.90
47600;DHT22;33323;52.124;6.018;2023-02-28T16:26:47;5.70;99.90
47600;DHT22;33323;52.124;6.018;2023-02-28T16:29:34;5.60;99.90
47600;DHT22;33323;52.124;6.018;2023-02-28T16:32:04;5.60;99.90
47600;DHT22;33323;52.124;6.018;2023-02-28T16:34:32;5.50;99.90
47600;DHT22;33323;52.124;6.018;2023-02-28T16:36:59;5.50;99.90
47600;DHT22;33323;52.124;6.018;2023-02-28T16:39:26;5.40;99.90
47600;DHT22;33323;52.124;6.018;2023-02-28T16:41:56;5.40;99.90
47600;DHT22;33323;52.124;6.018;2023-02-28T16:44:33;5.40;99.90
47600;DHT22;33323;52.124;6.018;2023-02-28T16:47:03;5.30;99.90
47600;DHT22;33323;52.124;6.018;2023-02-28T16:49:30;5.20;99.90
47600;DHT22;33323;52.124;6.018;2023-02-28T16:51:57;5.10;99.90
47600;DHT22;33323;52.124;6.018;2023-02-28T16:54:25;5.10;99.90
47600;DHT22;33323;52.124;6.018;2023-02-28T16:56:52;5.00;99.90
47600;DHT22;33323;52.124;6.018;2023-02-28T16:59:23;4.90;99.90
47600;DHT22;33323;52.124;6.018;2023-02-28T17:01:51;4.80;99.90
47600;DHT22;33323;52.124;6.018;2023-02-28T17:04:19;4.70;99.90
47600;DHT22;33323;52.124;6.018;2023-02-28T17:06:46;4.70;99.90
47600;DHT22;33323;52.124;6.018;2023-02-28T17:09:17;4.60;99.90
47600;DHT22;33323;52.124;6.018;2023-02-28T17:11:56;4.60;99.90
47600;DHT22;33323;52.124;6.018;2023-02-28T17:14:23;4.50;99.90
47600;DHT22;33323;52.124;6.018;2023-02-28T17:16:50;4.30;99.90
47600;DHT22;33323;52.124;6.018;2023-02-28T17:19:17;4.30;99.90
47600;DHT22;33323;52.124;6.018;2023-02-28T17:21:44;4.30;99.90
47600;DHT22;33323;52.124;6.018;2023-02-28T17:24:12;4.10;99.90
47600;DHT22;33323;52.124;6.018;2023-02-28T17:26:56;4.10;99.90
47600;DHT22;33323;52.124;6.018;2023-02-28T17:29:23;4.00;99.90
47600;DHT22;33323;52.124;6.018;2023-02-28T17:31:51;4.00;99.90
47600;DHT22;33323;52.124;6.018;2023-02-28T17:34:18;4.00;99.90
47600;DHT22;33323;52.124;6.018;2023-02-28T17:36:48;4.10;99.90
47600;DHT22;33323;52.124;6.018;2023-02-28T17:39:17;4.20;99.90
47600;DHT22;33323;52.124;6.018;2023-02-28T17:41:51;4.30;99.90
47600;DHT22;33323;52.124;6.018;2023-02-28T17:44:19;4.30;99.90
47600;DHT22;33323;52.124;6.018;2023-02-28T17:46:47;3.90;99.90
47600;DHT22;33323;52.124;6.018;2023-02-28T17:49:17;3.50;99.90
47600;DHT22;33323;52.124;6.018;2023-02-28T17:51:47;3.20;99.90
47600;DHT22;33323;52.124;6.018;2023-02-28T17:54:14;3.00;99.90
47600;DHT22;33323;52.124;6.018;2023-02-28T17:56:44;2.90;99.90
47600;DHT22;33323;52.124;6.018;2023-02-28T17:59:12;2.80;99.90
47600;DHT22;33323;52.124;6.018;2023-02-28T18:01:39;3.10;99.90
47600;DHT22;33323;52.124;6.018;2023-02-28T18:04:06;3.20;99.90
47600;DHT22;33323;52.124;6.018;2023-02-28T18:06:37;3.30;99.90
47600;DHT22;33323;52.124;6.018;2023-02-28T18:09:16;3.30;99.90
47600;DHT22;33323;52.124;6.018;2023-02-28T18:11:45;3.10;99.90
47600;DHT22;33323;52.124;6.018;2023-02-28T18:14:12;2.90;99.90
47600;DHT22;33323;52.124;6.018;2023-02-28T18:16:39;2.90;99.90
47600;DHT22;33323;52.124;6.018;2023-02-28T18:19:06;2.90;99.90
47600;DHT22;33323;52.124;6.018;2023-02-28T18:21:35;2.90;99.90
47600;DHT22;33323;52.124;6.018;2023-02-28T18:24:02;3.00;99.90
47600;DHT22;33323;52.124;6.018;2023-02-28T18:26:29;3.00;99.90
47600;DHT22;33323;52.124;6.018;2023-02-28T18:28:56;2.90;99.90
47600;DHT22;33323;52.124;6.018;2023-02-28T18:31:24;2.90;99.90
47600;DHT22;33323;52.124;6.018;2023-02-28T18:33:51;2.80;99.90
47600;DHT22;33323;52.124;6.018;2023-02-28T18:36:20;2.60;99.90
47600;DHT22;33323;52.124;6.018;2023-02-28T18:38:48;2.60;99.90
47600;DHT22;33323;52.124;6.018;2023-02-28T18:41:17;2.60;99.90
47600;DHT22;33323;52.124;6.018;2023-02-28T18:43:48;2.70;99.90
47600;DHT22;33323;52.124;6.018;2023-02-28T18:46:19;2.70;99.90
47600;DHT22;33323;52.124;6.018;2023-02-28T18:48:48;2.60;99.90
47600;DHT22;33323;52.124;6.018;2023-02-28T18:51:21;2.50;99.90
47600;DHT22;33323;52.124;6.018;2023-02-28T18:53:51;2.40;99.90
47600;DHT22;33323;52.124;6.018;2023-02-28T18:56:20;2.40;99.90
47600;DHT22;33323;52.124;6.018;2023-02-28T18:58:49;2.50;99.90
47600;DHT22;33323;52.124;6.018;2023-02-28T19:01:23;2.40;99.90
47600;DHT22;33323;52.124;6.018;2023-02-28T19:03:56;2.20;99.90
47600;DHT22;33323;52.124;6.018;2023-02-28T19:06:26;2.20;99.90